Time;durP1;ratioP1;P1;durP2;ratioP2;P2;SDS_P1;SDS_P2;PMS_P1;PMS_P2;Temp;Humidity;BMP_temperature;BMP_pressure;BME280_temperature;BME280_humidity;BME280_pressure;Samples;Min_cycle;Max_cycle;Signal;HPM_P1;HPM_P2
2022/10/02 00:02:19;;;;;;;26.53;5.80;;;;;;;11.56;100.00;101241.81;6088621;23;20078;-82
2022/10/02 00:04:52;;;;;;;29.88;6.38;;;;;;;11.56;100.00;101240.94;6089694;23;20244;-83
2022/10/02 00:07:20;;;;;;;;;;;;;;;11.60;100.00;101250.53;6090171;23;20010;-82
2022/10/02 00:10:01;;;;;;;26.23;6.35;;;;;;;11.58;100.00;101255.94;6090233;23;19916;-82
2022/10/02 00:12:29;;;;;;;21.48;7.05;;;;;;;11.59;100.00;101259.47;6088806;23;20340;-81
2022/10/02 00:15:02;;;;;;;35.53;6.50;;;;;;;11.52;100.00;101248.22;6089681;23;20015;-82
2022/10/02 00:17:34;;;;;;;25.43;5.90;;;;;;;11.54;100.00;101264.16;6090278;23;20085;-83
2022/10/02 00:19:59;;;;;;;25.77;6.68;;;;;;;11.54;100.00;101256.16;6090022;23;20025;-82
2022/10/02 00:22:48;;;;;;;28.33;5.80;;;;;;;11.57;100.00;101262.19;6089136;23;20353;-82
2022/10/02 00:25:26;;;;;;;23.85;6.53;;;;;;;11.56;100.00;101272.94;6074069;23;20013;-83
2022/10/02 00:28:06;;;;;;;30.92;5.82;;;;;;;11.60;100.00;101271.84;6064279;23;20026;-82
2022/10/02 00:30:47;;;;;;;25.10;5.53;;;;;;;11.62;100.00;101269.97;6089959;23;20390;-82
2022/10/02 00:33:30;;;;;;;33.00;6.70;;;;;;;11.59;100.00;101270.13;6090726;23;20014;-82
2022/10/02 00:35:59;;;;;;;28.77;6.07;;;;;;;11.61;100.00;101273.56;6091579;23;20061;-82
2022/10/02 00:38:46;;;;;;;25.88;6.18;;;;;;;11.56;100.00;101284.47;6091467;23;20353;-82
2022/10/02 00:41:49;;;;;;;33.85;6.93;;;;;;;11.54;100.00;101288.16;6090644;23;19999;-82
2022/10/02 00:44:44;;;;;;;25.75;5.47;;;;;;;11.53;100.00;101275.75;6065194;23;20002;-82
2022/10/02 00:47:19;;;;;;;28.00;6.30;;;;;;;11.52;100.00;101280.22;6087462;23;20924;-82
2022/10/02 00:49:54;;;;;;;35.60;6.32;;;;;;;11.53;100.00;101278.41;6092746;23;20333;-82
2022/10/02 00:52:47;;;;;;;29.58;6.53;;;;;;;11.56;100.00;101275.59;6092694;23;20011;-82
2022/10/02 00:55:20;;;;;;;29.95;6.72;;;;;;;11.61;100.00;101279.75;6094144;23;20010;-83
2022/10/02 00:58:10;;;;;;;24.25;5.35;;;;;;;11.60;100.00;101282.53;6094708;23;20010;-82
2022/10/02 01:00:38;;;;;;;28.58;6.35;;;;;;;11.58;100.00;101279.03;6093732;23;20045;-83
2022/10/02 01:03:16;;;;;;;26.33;5.75;;;;;;;11.52;100.00;101279.34;6065236;23;20011;-82
2022/10/02 01:05:41;;;;;;;26.45;5.75;;;;;;;11.58;100.00;101276.38;6092033;23;20012;-82
2022/10/02 01:08:07;;;;;;;22.25;5.10;;;;;;;11.55;100.00;101277.41;6091527;23;20037;-82
2022/10/02 01:10:33;;;;;;;23.75;5.35;;;;;;;11.56;100.00;101287.13;6090494;23;20105;-82
2022/10/02 01:12:59;;;;;;;27.15;5.68;;;;;;;11.55;100.00;101279.22;6090182;23;20021;-82
2022/10/02 01:15:43;;;;;;;30.95;5.85;;;;;;;11.57;100.00;101293.31;6091629;23;20014;-83
2022/10/02 01:18:12;;;;;;;34.78;6.25;;;;;;;11.59;100.00;101288.78;6091814;23;20009;-82
2022/10/02 01:20:44;;;;;;;29.92;6.03;;;;;;;11.62;100.00;101291.28;6091744;23;20014;-83
2022/10/02 01:23:27;;;;;;;35.45;5.57;;;;;;;11.65;100.00;101285.81;6065184;23;20030;-82
2022/10/02 01:25:53;;;;;;;28.00;6.18;;;;;;;11.66;100.00;101274.22;6091530;23;20077;-82
2022/10/02 01:28:20;;;;;;;33.75;5.60;;;;;;;11.68;100.00;101281.22;6090458;23;20579;-82
2022/10/02 01:30:48;;;;;;;28.85;5.35;;;;;;;11.65;100.00;101275.16;6090914;23;20046;-82
2022/10/02 01:33:14;;;;;;;38.40;6.43;;;;;;;11.70;100.00;101275.78;6091150;23;20705;-81
2022/10/02 01:35:41;;;;;;;27.75;6.35;;;;;;;11.65;100.00;101259.16;6092093;23;20013;-82
2022/10/02 01:38:09;;;;;;;25.27;6.75;;;;;;;11.68;100.00;101269.69;6091770;23;20085;-81
2022/10/02 01:40:37;;;;;;;28.50;6.40;;;;;;;11.74;100.00;101272.03;6090572;23;20018;-82
2022/10/02 01:43:09;;;;;;;31.65;6.53;;;;;;;11.76;100.00;101270.16;6091359;23;20572;-82
2022/10/02 01:45:42;;;;;;;27.50;5.63;;;;;;;11.76;100.00;101278.16;6096815;23;20216;-82
2022/10/02 01:48:20;;;;;;;29.85;6.00;;;;;;;11.69;100.00;101285.59;6104309;23;19990;-81
2022/10/02 01:51:15;;;;;;;29.88;5.43;;;;;;;11.67;100.00;101284.81;6105769;23;20010;-81
2022/10/02 01:53:47;;;;;;;;;;;;;;;11.70;100.00;101278.44;6069220;23;20014;-82
2022/10/02 01:56:48;;;;;;;26.27;5.93;;;;;;;11.77;100.00;101285.22;6090380;23;19905;-82
2022/10/02 01:59:41;;;;;;;36.67;6.15;;;;;;;11.77;100.00;101274.56;6089672;23;20060;-82
2022/10/02 02:02:39;;;;;;;29.02;5.82;;;;;;;11.80;100.00;101278.88;6090082;23;20044;-82
2022/10/02 02:05:14;;;;;;;31.38;6.47;;;;;;;11.81;100.00;101284.13;6090641;23;20002;-82
2022/10/02 02:07:51;;;;;;;32.85;6.97;;;;;;;11.82;100.00;101283.19;6091344;23;20089;-82
2022/10/02 02:10:37;;;;;;;31.85;5.75;;;;;;;11.85;100.00;101277.75;6091037;23;20010;-83
2022/10/02 02:13:20;;;;;;;27.25;6.18;;;;;;;11.90;100.00;101289.03;6090661;23;20010;-82
2022/10/02 02:15:53;;;;;;;29.60;6.00;;;;;;;11.96;100.00;101279.91;6089411;23;20020;-82
2022/10/02 02:18:32;;;;;;;28.55;6.43;;;;;;;11.98;100.00;101277.16;6090104;23;20009;-82
2022/10/02 02:21:05;;;;;;;31.10;6.30;;;;;;;11.98;100.00;101279.81;6089406;23;20003;-82
2022/10/02 02:23:34;;;;;;;41.42;7.50;;;;;;;12.01;100.00;101277.84;6064610;23;20014;-82
2022/10/02 02:26:05;;;;;;;29.00;6.05;;;;;;;12.01;100.00;101282.34;6090173;23;20057;-82
2022/10/02 02:28:33;;;;;;;23.00;5.75;;;;;;;11.94;100.00;101277.28;6090150;23;20364;-82
2022/10/02 02:31:01;;;;;;;29.17;5.75;;;;;;;11.90;100.00;101278.38;6089306;23;20336;-82
2022/10/02 02:33:37;;;;;;;28.83;5.63;;;;;;;11.90;100.00;101286.38;6090240;23;20015;-82
2022/10/02 02:36:09;;;;;;;26.88;5.32;;;;;;;11.91;100.00;101282.78;6091040;23;20006;-82
2022/10/02 02:38:41;;;;;;;31.13;6.13;;;;;;;11.96;100.00;101303.91;6090815;23;20017;-82
2022/10/02 02:41:12;;;;;;;25.25;5.38;;;;;;;11.99;100.00;101298.41;6088970;23;20061;-82
2022/10/02 02:43:45;;;;;;;32.47;5.68;;;;;;;12.02;100.00;101297.41;6090348;23;20013;-81
2022/10/02 02:46:21;;;;;;;29.98;5.90;;;;;;;12.02;100.00;101286.72;6090120;23;20484;-81
2022/10/02 02:48:55;;;;;;;25.80;5.90;;;;;;;11.99;100.00;101292.19;6090534;23;20037;-80
2022/10/02 02:51:28;;;;;;;30.20;5.95;;;;;;;11.96;100.00;101290.56;6087319;23;20048;-80
2022/10/02 02:54:05;;;;;;;34.25;6.50;;;;;;;11.94;100.00;101297.75;6088830;23;20452;-81
2022/10/02 02:56:32;;;;;;;25.45;5.25;;;;;;;11.91;100.00;101293.47;6064133;23;20029;-82
2022/10/02 02:59:06;;;;;;;24.75;5.15;;;;;;;11.88;100.00;101298.94;6089120;23;20008;-82
2022/10/02 03:01:31;;;;;;;27.45;6.30;;;;;;;11.88;100.00;101306.09;6087805;23;20007;-82
2022/10/02 03:03:56;;;;;;;28.42;6.72;;;;;;;11.86;100.00;101311.47;6089184;23;20095;-82
2022/10/02 03:06:30;;;;;;;24.02;4.32;;;;;;;11.76;100.00;101307.50;6091081;23;20014;-82
2022/10/02 03:08:56;;;;;;;19.20;4.80;;;;;;;11.67;100.00;101299.97;6088078;23;20018;-82
2022/10/02 03:11:28;;;;;;;15.75;4.18;;;;;;;11.59;100.00;101287.00;6088959;23;20286;-82
2022/10/02 03:14:07;;;;;;;13.32;3.35;;;;;;;11.53;100.00;101287.25;6090337;23;20131;-82
2022/10/02 03:16:47;;;;;;;18.02;4.05;;;;;;;11.39;100.00;101290.59;6090199;23;20452;-82
2022/10/02 03:19:46;;;;;;;13.90;3.97;;;;;;;11.28;100.00;101281.38;6089457;23;20084;-82
2022/10/02 03:22:17;;;;;;;13.90;3.35;;;;;;;11.24;100.00;101288.63;6088916;23;20078;-82
2022/10/02 03:24:49;;;;;;;12.18;3.42;;;;;;;11.18;100.00;101280.94;6090769;23;20384;-82
2022/10/02 03:27:30;;;;;;;14.98;3.28;;;;;;;11.19;100.00;101282.66;6064080;23;20017;-82
2022/10/02 03:30:05;;;;;;;11.55;3.20;;;;;;;11.18;100.00;101286.28;6088916;23;20065;-81
2022/10/02 03:32:31;;;;;;;12.70;3.20;;;;;;;11.10;100.00;101278.63;6089444;23;20389;-82
2022/10/02 03:34:58;;;;;;;12.23;3.45;;;;;;;11.11;100.00;101295.47;6092504;23;20022;-82
2022/10/02 03:37:24;;;;;;;8.60;3.28;;;;;;;11.07;100.00;101280.56;6069152;23;20017;-82
2022/10/02 03:39:51;;;;;;;11.02;3.92;;;;;;;11.04;100.00;101278.94;6098899;23;20010;-82
2022/10/02 03:42:22;;;;;;;13.48;4.45;;;;;;;11.09;100.00;101286.69;6095756;23;20085;-82
2022/10/02 03:44:47;;;;;;;12.32;6.10;;;;;;;11.05;100.00;101288.63;6091790;23;20037;-82
2022/10/02 03:47:13;;;;;;;14.75;5.63;;;;;;;11.05;100.00;101288.63;6065683;23;20021;-82
2022/10/02 03:49:39;;;;;;;15.07;5.60;;;;;;;10.99;100.00;101291.56;6065336;23;20013;-82
2022/10/02 03:52:04;;;;;;;18.33;6.22;;;;;;;10.95;100.00;101293.53;6089049;23;20074;-82
2022/10/02 03:54:36;;;;;;;13.73;6.05;;;;;;;10.87;100.00;101290.34;6089321;23;20038;-82
2022/10/02 03:57:08;;;;;;;16.63;6.20;;;;;;;10.85;100.00;101294.84;6091531;23;20010;-82
2022/10/02 03:59:39;;;;;;;17.60;6.97;;;;;;;10.80;100.00;101294.22;6088783;23;20089;-82
2022/10/02 04:02:20;;;;;;;16.10;6.90;;;;;;;10.81;100.00;101298.59;6089470;23;20009;-82
2022/10/02 04:04:53;;;;;;;18.73;6.22;;;;;;;10.83;100.00;101299.41;6090940;23;20089;-82
2022/10/02 04:07:21;;;;;;;;;;;;;;;10.80;100.00;101291.53;6090850;23;20026;-82
2022/10/02 04:10:15;;;;;;;20.00;8.13;;;;;;;10.88;100.00;101296.53;6090667;23;19909;-82
2022/10/02 04:12:47;;;;;;;22.67;9.25;;;;;;;10.93;100.00;101292.72;6091571;23;20054;-81
2022/10/02 04:15:29;;;;;;;27.83;10.57;;;;;;;11.04;100.00;101291.38;6091015;23;20085;-81
2022/10/02 04:18:03;;;;;;;25.50;10.15;;;;;;;11.11;100.00;101311.47;6091881;23;20030;-81
2022/10/02 04:20:47;;;;;;;;;;;;;;;11.09;100.00;101326.66;6065759;23;20322;-81
2022/10/02 04:23:35;;;;;;;29.47;10.20;;;;;;;11.20;100.00;101301.25;6091268;23;19913;-82
2022/10/02 04:26:13;;;;;;;26.60;11.52;;;;;;;11.28;100.00;101318.69;6092030;23;20014;-82
2022/10/02 04:28:43;;;;;;;25.63;11.20;;;;;;;11.33;100.00;101311.31;6092623;23;20077;-82
2022/10/02 04:31:12;;;;;;;22.60;10.30;;;;;;;11.34;100.00;101316.59;6090935;23;20098;-82
2022/10/02 04:33:38;;;;;;;27.80;11.82;;;;;;;11.38;100.00;101315.53;6092459;23;20088;-83
2022/10/02 04:36:28;;;;;;;24.10;12.00;;;;;;;11.38;100.00;101307.53;6091749;23;20340;-83
2022/10/02 04:39:11;;;;;;;25.35;12.55;;;;;;;11.41;100.00;101312.72;6091198;23;20061;-83
2022/10/02 04:42:14;;;;;;;25.48;13.32;;;;;;;11.40;100.00;101310.97;6091286;23;20089;-83
2022/10/02 04:44:45;;;;;;;29.33;14.32;;;;;;;11.44;100.00;101311.69;6091597;23;20007;-82
2022/10/02 04:47:35;;;;;;;30.95;14.95;;;;;;;11.46;100.00;101318.69;6091555;23;20014;-82
2022/10/02 04:50:24;;;;;;;35.78;17.17;;;;;;;11.50;100.00;101322.09;6090067;23;20007;-82
2022/10/02 04:52:52;;;;;;;37.60;18.02;;;;;;;11.52;100.00;101330.88;6091106;23;20009;-82
2022/10/02 04:55:36;;;;;;;40.63;18.98;;;;;;;11.54;100.00;101334.34;6091251;23;20057;-82
2022/10/02 04:58:32;;;;;;;39.22;19.40;;;;;;;11.56;100.00;101329.78;6091305;23;20002;-82
2022/10/02 05:01:13;;;;;;;43.15;20.48;;;;;;;11.63;100.00;101333.91;6064655;23;20389;-82
2022/10/02 05:04:04;;;;;;;44.55;20.05;;;;;;;11.65;100.00;101340.00;6091964;23;20010;-82
2022/10/02 05:06:57;;;;;;;42.50;18.55;;;;;;;11.69;100.00;101336.25;6090509;23;20010;-82
2022/10/02 05:09:25;;;;;;;42.55;18.55;;;;;;;11.72;100.00;101340.59;6090013;23;20022;-82
2022/10/02 05:12:03;;;;;;;50.03;19.15;;;;;;;11.74;100.00;101336.03;6090957;23;20575;-80
2022/10/02 05:14:35;;;;;;;44.40;16.70;;;;;;;11.75;100.00;101343.13;6091552;23;20002;-81
2022/10/02 05:17:35;;;;;;;46.13;17.27;;;;;;;11.74;100.00;101344.03;6091090;23;20017;-82
2022/10/02 05:20:29;;;;;;;45.33;16.35;;;;;;;11.73;100.00;101340.50;6090239;23;20005;-81
2022/10/02 05:23:06;;;;;;;50.15;17.58;;;;;;;11.78;100.00;101334.09;6090996;23;20010;-82
2022/10/02 05:26:04;;;;;;;41.35;16.60;;;;;;;11.68;100.00;101331.00;6065516;23;20010;-82
2022/10/02 05:28:48;;;;;;;46.83;16.80;;;;;;;11.73;100.00;101347.66;6091073;23;20006;-81
2022/10/02 05:31:22;;;;;;;47.70;15.73;;;;;;;11.76;100.00;101349.31;6090302;23;20492;-81
2022/10/02 05:34:09;;;;;;;45.63;17.48;;;;;;;11.75;100.00;101344.94;6090589;23;20013;-81
2022/10/02 05:36:53;;;;;;;44.50;16.77;;;;;;;11.75;100.00;101359.13;6090964;23;20002;-81
2022/10/02 05:39:27;;;;;;;42.80;16.00;;;;;;;11.77;100.00;101359.91;6089815;23;20026;-81
2022/10/02 05:42:13;;;;;;;45.25;16.05;;;;;;;11.75;100.00;101363.59;6090779;23;20003;-81
2022/10/02 05:44:44;;;;;;;47.47;14.25;;;;;;;11.77;100.00;101365.22;6090609;23;20007;-82
2022/10/02 05:47:21;;;;;;;47.45;14.15;;;;;;;11.72;100.00;101362.78;6064981;23;20030;-81
2022/10/02 05:49:58;;;;;;;41.42;12.25;;;;;;;11.68;100.00;101357.69;6089669;23;20014;-81
2022/10/02 05:52:33;;;;;;;40.45;11.35;;;;;;;11.75;100.00;101372.47;6090689;23;20381;-81
2022/10/02 05:55:02;;;;;;;45.60;11.85;;;;;;;11.76;100.00;101376.84;6090680;23;20017;-82
2022/10/02 05:57:40;;;;;;;45.55;14.02;;;;;;;11.73;100.00;101364.50;6065221;23;20460;-82
2022/10/02 06:00:16;;;;;;;46.35;12.13;;;;;;;11.83;100.00;101365.00;6089416;23;20010;-82
2022/10/02 06:03:10;;;;;;;39.95;11.25;;;;;;;11.76;100.00;101359.97;6064791;23;20049;-81
2022/10/02 06:06:01;;;;;;;42.97;11.15;;;;;;;11.85;100.00;101372.91;6065339;23;20010;-81
2022/10/02 06:08:34;;;;;;;38.80;12.00;;;;;;;11.86;100.00;101375.50;6089519;23;20022;-82
2022/10/02 06:11:07;;;;;;;41.55;11.30;;;;;;;11.85;100.00;101370.25;6090348;23;20002;-81
2022/10/02 06:13:42;;;;;;;39.23;11.67;;;;;;;11.84;100.00;101372.03;6090787;23;20017;-81
2022/10/02 06:16:22;;;;;;;45.00;11.27;;;;;;;11.89;100.00;101374.50;6065552;23;20061;-82
2022/10/02 06:18:55;;;;;;;43.33;11.88;;;;;;;11.90;100.00;101379.75;6063697;23;20010;-82
2022/10/02 06:21:34;;;;;;;44.58;12.00;;;;;;;11.93;100.00;101390.28;6091641;23;20006;-81
2022/10/02 06:24:06;;;;;;;37.42;10.98;;;;;;;11.95;100.00;101391.09;6099888;23;20006;-83
2022/10/02 06:26:42;;;;;;;34.40;11.55;;;;;;;11.98;100.00;101397.19;6101610;23;20504;-82
2022/10/02 06:29:21;;;;;;;38.83;12.25;;;;;;;11.93;100.00;101398.28;6097001;23;20154;-81
2022/10/02 06:31:50;;;;;;;34.50;11.55;;;;;;;11.99;100.00;101414.91;6091906;23;20007;-81
2022/10/02 06:34:16;;;;;;;31.67;11.10;;;;;;;12.00;100.00;101409.53;6092927;23;20115;-82
2022/10/02 06:37:06;;;;;;;38.28;11.43;;;;;;;12.02;100.00;101417.44;6092413;23;20006;-82
2022/10/02 06:40:02;;;;;;;35.13;11.77;;;;;;;12.01;100.00;101408.59;6089422;23;20025;-81
2022/10/02 06:42:57;;;;;;;33.28;11.63;;;;;;;12.04;100.00;101410.22;6063522;23;20025;-82
2022/10/02 06:45:52;;;;;;;33.47;11.38;;;;;;;12.05;100.00;101414.66;6091141;23;20365;-81
2022/10/02 06:48:24;;;;;;;34.85;11.13;;;;;;;12.07;100.00;101415.41;6089915;23;20010;-81
2022/10/02 06:50:57;;;;;;;28.50;11.93;;;;;;;12.07;100.00;101418.94;6089179;23;20003;-81
2022/10/02 06:53:29;;;;;;;33.10;11.45;;;;;;;12.06;100.00;101424.38;6088491;23;20664;-81
2022/10/02 06:56:21;;;;;;;36.50;11.13;;;;;;;12.04;100.00;101426.22;6064018;23;20352;-81
2022/10/02 06:59:03;;;;;;;32.88;12.40;;;;;;;12.05;100.00;101430.66;6087795;23;20006;-81
2022/10/02 07:01:53;;;;;;;39.40;12.20;;;;;;;12.07;100.00;101442.09;6087677;23;20002;-81
2022/10/02 07:04:50;;;;;;;31.15;12.23;;;;;;;12.09;100.00;101440.25;6062748;23;20348;-82
2022/10/02 07:07:37;;;;;;;33.20;11.88;;;;;;;12.10;100.00;101445.50;6089323;23;20022;-81
2022/10/02 07:10:37;;;;;;;29.10;12.02;;;;;;;12.11;100.00;101451.69;6087667;23;20017;-81
2022/10/02 07:13:10;;;;;;;32.88;11.88;;;;;;;12.08;100.00;101436.72;6061209;23;20441;-81
2022/10/02 07:16:05;;;;;;;30.35;12.82;;;;;;;12.11;100.00;101449.88;6089343;23;20012;-81
2022/10/02 07:18:57;;;;;;;34.22;12.48;;;;;;;12.09;100.00;101458.91;6061230;23;20429;-81
2022/10/02 07:21:34;;;;;;;27.90;13.75;;;;;;;12.10;100.00;101464.19;6084610;23;20006;-84
2022/10/02 07:24:12;;;;;;;30.33;13.85;;;;;;;12.10;100.00;101464.19;6063214;23;20021;-85
2022/10/02 07:26:46;;;;;;;34.03;14.63;;;;;;;12.09;100.00;101459.78;6089328;23;20010;-86
2022/10/02 07:29:49;;;;;;;36.28;15.18;;;;;;;12.10;100.00;101455.31;6062130;23;20093;-85
2022/10/02 07:32:18;;;;;;;28.10;14.15;;;;;;;12.12;100.00;101461.41;6064533;23;20034;-83
2022/10/02 07:34:50;;;;;;;30.55;13.88;;;;;;;12.12;100.00;101467.66;6090173;23;20014;-83
2022/10/02 07:37:50;;;;;;;31.30;14.07;;;;;;;12.13;100.00;101458.69;6088232;23;20006;-84
2022/10/02 07:40:44;;;;;;;31.27;14.85;;;;;;;12.23;100.00;101464.44;6091259;23;20006;-83
2022/10/02 07:43:42;;;;;;;29.58;14.60;;;;;;;12.27;100.00;101465.19;6093754;23;20429;-83
2022/10/02 07:46:22;;;;;;;25.88;14.10;;;;;;;12.34;100.00;101469.28;6092910;23;20033;-83
2022/10/02 07:49:06;;;;;;;32.47;14.43;;;;;;;12.38;100.00;101469.06;6093069;23;20061;-83
2022/10/02 07:51:52;;;;;;;34.85;14.80;;;;;;;12.39;100.00;101464.59;6093529;23;20537;-83
2022/10/02 07:54:38;;;;;;;30.05;16.17;;;;;;;12.49;100.00;101468.53;6093381;23;20006;-84
2022/10/02 07:57:17;;;;;;;37.65;17.00;;;;;;;12.54;100.00;101462.97;6094407;23;20003;-83
2022/10/02 07:59:45;;;;;;;35.25;18.35;;;;;;;12.61;100.00;101470.59;6067042;23;20021;-83
2022/10/02 08:02:27;;;;;;;36.47;17.13;;;;;;;12.68;100.00;101474.69;6092740;23;20002;-83
2022/10/02 08:04:59;;;;;;;34.85;17.95;;;;;;;12.87;100.00;101479.13;6067714;23;20006;-84
2022/10/02 08:07:26;;;;;;;36.72;19.10;;;;;;;12.87;100.00;101487.13;6066763;23;20029;-83
2022/10/02 08:09:53;;;;;;;35.22;18.38;;;;;;;12.92;100.00;101491.31;6093298;23;20041;-84
2022/10/02 08:12:33;;;;;;;31.58;17.67;;;;;;;12.99;100.00;101491.84;6093120;23;20010;-84
2022/10/02 08:15:00;;;;;;;36.50;19.58;;;;;;;12.95;100.00;101495.63;6092944;23;20264;-81
2022/10/02 08:17:44;;;;;;;35.35;18.38;;;;;;;13.02;100.00;101498.88;6092345;23;20014;-82
2022/10/02 08:20:26;;;;;;;28.45;15.80;;;;;;;13.04;100.00;101496.97;6093149;23;20112;-82
2022/10/02 08:23:28;;;;;;;33.03;15.77;;;;;;;13.08;100.00;101494.06;6093327;23;20137;-82
2022/10/02 08:26:04;;;;;;;29.05;15.63;;;;;;;13.18;100.00;101502.50;6058585;23;20455;-82
2022/10/02 08:28:43;;;;;;;21.10;13.52;;;;;;;13.30;100.00;101509.91;6066148;23;20017;-82
2022/10/02 08:31:11;;;;;;;27.13;13.82;;;;;;;13.34;100.00;101510.63;6093024;23;20358;-82
2022/10/02 08:33:37;;;;;;;24.33;12.65;;;;;;;13.34;100.00;101508.81;6093760;23;20017;-81
2022/10/02 08:36:22;;;;;;;24.75;12.73;;;;;;;13.42;100.00;101519.97;6093367;23;20006;-82
2022/10/02 08:39:16;;;;;;;24.70;12.15;;;;;;;13.45;100.00;101519.78;6066837;23;20006;-81
2022/10/02 08:42:12;;;;;;;19.38;11.65;;;;;;;13.46;100.00;101518.00;6083115;23;20457;-82
2022/10/02 08:45:15;;;;;;;24.88;11.88;;;;;;;13.48;100.00;101531.28;6093678;23;20025;-82
2022/10/02 08:48:01;;;;;;;23.88;12.32;;;;;;;13.45;100.00;101533.16;6066466;23;20399;-82
2022/10/02 08:50:35;;;;;;;20.25;12.48;;;;;;;13.50;100.00;101534.72;6092066;23;20052;-82
2022/10/02 08:53:25;;;;;;;22.92;11.77;;;;;;;13.61;100.00;101537.72;6091573;23;20089;-81
2022/10/02 08:56:12;;;;;;;24.15;12.73;;;;;;;13.70;100.00;101539.91;6091604;23;20009;-82
2022/10/02 08:58:43;;;;;;;23.98;14.57;;;;;;;13.77;100.00;101546.69;6090700;23;20010;-82
2022/10/02 09:01:16;;;;;;;18.55;11.07;;;;;;;13.79;100.00;101546.59;6091749;23;20022;-82
2022/10/02 09:04:30;;;;;;;20.58;11.85;;;;;;;13.90;100.00;101546.88;6092692;23;20069;-82
2022/10/02 09:07:38;;;;;;;22.55;12.02;;;;;;;14.18;100.00;101547.13;6004113;23;20035;-82
2022/10/02 09:10:25;;;;;;;18.30;11.10;;;;;;;14.39;100.00;101545.06;5982598;23;20052;-82
2022/10/02 09:13:29;;;;;;;16.70;10.73;;;;;;;14.49;100.00;101547.28;6005619;23;20008;-82
2022/10/02 09:16:11;;;;;;;16.30;9.90;;;;;;;14.40;100.00;101559.31;6000018;23;20016;-82
2022/10/02 09:19:01;;;;;;;18.88;10.02;;;;;;;14.32;100.00;101553.53;6003134;23;20011;-82
2022/10/02 09:21:50;;;;;;;18.02;9.93;;;;;;;14.32;100.00;101550.84;5980126;23;20016;-82
2022/10/02 09:24:28;;;;;;;17.50;11.48;;;;;;;14.45;100.00;101547.41;6005807;23;20016;-83
2022/10/02 09:27:02;;;;;;;20.52;10.88;;;;;;;14.85;100.00;101555.91;6002246;23;20434;-82
2022/10/02 09:30:01;;;;;;;17.83;10.95;;;;;;;15.23;100.00;101549.25;6003668;23;20043;-82
2022/10/02 09:32:51;;;;;;;18.52;11.65;;;;;;;15.66;100.00;101553.78;5979093;23;20236;-82
2022/10/02 09:35:41;;;;;;;17.33;11.23;;;;;;;16.07;100.00;101562.94;6003022;23;20115;-81
2022/10/02 09:38:37;;;;;;;16.90;10.05;;;;;;;15.97;100.00;101568.03;6001700;23;20011;-82
2022/10/02 09:41:36;;;;;;;19.38;10.70;;;;;;;15.83;100.00;101565.31;5978366;23;20018;-82
2022/10/02 09:44:27;;;;;;;14.88;9.93;;;;;;;15.61;100.00;101574.66;6056787;23;20010;-82
2022/10/02 09:47:17;;;;;;;14.73;10.30;;;;;;;15.47;100.00;101576.41;6090302;23;20870;-82
2022/10/02 09:50:02;;;;;;;18.85;11.45;;;;;;;15.64;100.00;101573.63;6092248;23;20013;-82
2022/10/02 09:52:45;;;;;;;17.75;10.35;;;;;;;16.22;100.00;101571.84;6091381;23;20003;-82
2022/10/02 09:55:34;;;;;;;;;;;;;;;16.52;100.00;101571.75;6090996;23;20002;-81
2022/10/02 09:58:18;;;;;;;17.50;10.05;;;;;;;16.92;94.40;101570.03;6090976;23;19913;-81
2022/10/02 10:00:52;;;;;;;19.50;10.10;;;;;;;16.57;93.49;101575.00;6091485;23;20410;-81
2022/10/02 10:03:38;;;;;;;16.58;10.27;;;;;;;16.25;95.35;101585.97;6090886;23;20013;-81
2022/10/02 10:06:31;;;;;;;22.02;12.65;;;;;;;16.10;97.57;101581.56;6091251;23;20086;-81
2022/10/02 10:09:28;;;;;;;19.25;10.32;;;;;;;16.21;98.22;101586.25;6090483;23;20495;-81
2022/10/02 10:12:26;;;;;;;15.95;9.15;;;;;;;17.01;95.44;101584.69;6091192;23;20039;-81
2022/10/02 10:15:26;;;;;;;12.35;6.97;;;;;;;18.82;87.94;101575.66;6090964;23;20082;-81
2022/10/02 10:18:35;;;;;;;15.38;6.88;;;;;;;20.07;81.02;101584.13;6070087;23;20010;-82
2022/10/02 10:21:22;;;;;;;12.63;6.35;;;;;;;19.45;81.02;101587.97;6090827;23;20006;-81
2022/10/02 10:24:09;;;;;;;13.00;6.88;;;;;;;19.35;79.43;101600.44;6064621;23;20002;-81
2022/10/02 10:26:54;;;;;;;12.73;7.10;;;;;;;19.90;77.06;101607.91;6090058;23;20013;-81
2022/10/02 10:29:35;;;;;;;15.77;7.13;;;;;;;20.17;76.03;101617.53;6090341;23;20698;-80
2022/10/02 10:32:19;;;;;;;14.05;6.20;;;;;;;19.62;76.63;101613.72;6090263;23;20010;-79
2022/10/02 10:34:47;;;;;;;17.10;7.05;;;;;;;18.71;76.88;101622.28;6090878;23;20333;-81
2022/10/02 10:40:45;;;;;;;14.20;5.97;;;;;;;19.20;77.14;101634.00;6035802;23;20021;-82
2022/10/02 10:43:31;;;;;;;15.23;5.72;;;;;;;19.36;74.39;101635.44;6090080;23;20057;-82
2022/10/02 10:46:22;;;;;;;13.50;5.35;;;;;;;19.01;78.41;101637.19;6089968;23;20037;-82
2022/10/02 10:49:14;;;;;;;10.70;4.55;;;;;;;18.64;77.25;101650.63;6090709;23;20010;-82
2022/10/02 10:52:06;;;;;;;17.23;7.28;;;;;;;18.25;79.92;101651.66;6091034;23;20080;-82
2022/10/02 10:54:58;;;;;;;13.65;5.47;;;;;;;18.47;78.14;101656.38;6090152;23;20006;-82
2022/10/02 10:57:50;;;;;;;13.18;4.68;;;;;;;18.37;74.48;101651.63;6089973;23;19998;-81
2022/10/02 11:00:25;;;;;;;12.63;4.00;;;;;;;18.20;78.98;101657.34;6046290;23;20431;-82
2022/10/02 11:03:13;;;;;;;20.55;4.45;;;;;;;18.14;78.66;101657.78;6090283;23;20086;-82
2022/10/02 11:06:01;;;;;;;13.98;4.55;;;;;;;18.01;75.75;101643.44;6090870;23;20021;-83
2022/10/02 11:09:03;;;;;;;13.18;4.80;;;;;;;18.05;77.92;101650.34;6089677;23;20056;-82
2022/10/02 11:11:54;;;;;;;11.02;4.03;;;;;;;18.04;76.25;101648.63;6090872;23;20428;-81
2022/10/02 11:14:37;;;;;;;14.82;3.75;;;;;;;17.94;75.19;101637.63;6090574;23;20057;-82
2022/10/02 11:17:20;;;;;;;12.73;3.83;;;;;;;18.08;74.59;101640.22;6091019;23;20062;-83
2022/10/02 11:20:18;;;;;;;19.83;7.70;;;;;;;18.27;76.78;101630.84;6091495;23;20015;-82
2022/10/02 11:23:10;;;;;;;17.67;5.68;;;;;;;18.54;76.01;101638.78;6090098;23;20006;-83
2022/10/02 11:26:05;;;;;;;13.75;4.13;;;;;;;18.84;73.63;101638.44;6090620;23;20527;-81
2022/10/02 11:29:00;;;;;;;16.10;4.00;;;;;;;18.99;74.32;101640.00;6090110;23;20010;-81
2022/10/02 11:31:50;;;;;;;13.52;4.15;;;;;;;19.40;71.72;101641.47;6090253;23;20006;-82
2022/10/02 11:34:39;;;;;;;13.32;3.75;;;;;;;19.34;70.50;101652.72;6090364;23;20064;-83
2022/10/02 11:37:30;;;;;;;12.50;5.05;;;;;;;19.37;71.80;101658.75;6089034;23;20025;-83
2022/10/02 11:40:13;;;;;;;15.40;7.10;;;;;;;19.45;70.43;101655.47;6090570;23;20002;-82
2022/10/02 11:43:15;;;;;;;21.02;8.73;;;;;;;19.25;71.97;101665.06;6090527;23;20337;-82
2022/10/02 11:45:45;;;;;;;14.02;5.10;;;;;;;18.73;72.59;101665.31;6090768;23;20011;-82
2022/10/02 11:48:54;;;;;;;13.93;5.10;;;;;;;18.31;74.92;101660.16;6090092;23;20098;-82
2022/10/02 11:51:49;;;;;;;13.55;5.00;;;;;;;17.79;76.96;101661.06;6090307;23;20006;-82
2022/10/02 11:54:47;;;;;;;13.50;4.75;;;;;;;17.73;78.49;101658.78;6050458;23;20448;-83
2022/10/02 11:57:37;;;;;;;13.68;4.82;;;;;;;17.81;76.80;101658.31;6093232;23;20006;-83
2022/10/02 12:00:12;;;;;;;14.32;5.00;;;;;;;18.14;75.04;101661.34;6094231;23;20010;-83
2022/10/02 12:02:44;;;;;;;16.95;5.18;;;;;;;18.54;74.10;101663.06;6092411;23;20003;-83
2022/10/02 12:05:34;;;;;;;13.32;5.80;;;;;;;19.19;71.92;101645.75;6091437;23;20030;-82
2022/10/02 12:08:16;;;;;;;15.82;4.63;;;;;;;20.17;68.50;101663.47;6091452;23;20840;-83
2022/10/02 12:10:53;;;;;;;14.07;4.60;;;;;;;20.51;64.44;101658.13;6094328;23;20003;-83
2022/10/02 12:13:32;;;;;;;13.07;4.30;;;;;;;20.30;66.72;101661.53;6093042;23;20525;-82
2022/10/02 12:16:09;;;;;;;12.45;3.95;;;;;;;20.62;63.54;101661.69;6093079;23;20006;-83